ميلانو, Italy

04:35 PM CET on لبراêر 09, 2016 (GMT +0100)
Malpensa | | Change Station
CLOSE
Current Station
Airport
Location: Milan,
Elevation: 692 ft
Nearby Weather Stations

Elev 692 ft 45.63 °N, 8.72 °E | Updated 15 minutes ago

Rain
مطر
45 °F
Feels Like 42 °F
N
5
ريح متغير ريح from ESE

هذا اليوم
High -- | Low -- °F
--% Chance of Precip.
Yesterday
High -- | Low -- °F
Precip. -- في
الضغط 29.65 في
وضوح الرؤية 1.2 أميال
سحابات غائم كلياً 1000 ft
رياح باردة 42 °F
نقطة الندى 45 °F
الرطوبة 100%
Rainfall 0.00 في
عمق الثلج Not available.
7:36 AM 5:42 PM
قمر جدید, 1% visible
METAR LIMC 091520Z 11004KT 080V150 2000 RA BR BKN010 07/07 Q1004 NOSIG
الضغط 29.65 في
وضوح الرؤية 1.2 أميال
سحابات غائم كلياً 1000 ft
رياح باردة 42 °F
نقطة الندى 45 °F
الرطوبة 100%
Rainfall 0.00 في
عمق الثلج Not available.
7:36 AM 5:42 PM
قمر جدید, 1% visible
METAR LIMC 091520Z 11004KT 080V150 2000 RA BR BKN010 07/07 Q1004 NOSIG

10-Day Weather Forecast

Almanac

علم الفلك

Feb. 09, 2016 Rise Set
Actual Time
Civil Twilight
Nautical Twilight
Astronomical Twilight
قمر
Length Of Visible Light
طول الیوم
Tomorrow will be .
, % of the Moon is Illuminated

Today's Extremes

Country Highs Country Lows

Community

WunderPhotos

Upload Photos

1,891,619 photos uploaded!

WunderBlog® & News

Nearby

جودة الهواء

  جودة الهواء AQ Index Pollutant
Not available.

عمق الثلج

Station Depth Elevation

Earthquake Activity

City Distance Mag. Time & Date
Minimum magnitude displayed is 2.5.

Coastal Water Temperatures

مكان درجات الحرارة

Stations

Nearby Weather Stations

Station Location الحرارة رياح باردة نقطة الندى الرطوبة ريح Precip. Elev تحديث Type